EDDBTNCM

Guest
Details From EDDB - Berlin Schoenefeld
To TNCM - St Maarten - Princess Juliana Intl
Flight Number -
Tags Generated
Created
Modified
Stats Distance 4,066 nm / 7,530 km
Max Altitude 0 ft / 0 m
Waypoints 6
Social Downloads 4
Likes 0
Share VATSIM

Download

Looking for another format? Having issues loading an existing format? Contact us
Advertisement - Login to hide

Notes

Generated

Route

EDDB TWN04 RATLO ELRAG MNOLO TNCM

ID Type Via Altitude Latitude Longitude Leg Dist Tot Dist Heading (true) Name
O EDDB APT - 0 ft / 0 m 52.38012˚ 13.51714˚ - 0 nm - Berlin Schoenefeld
TWN04 FIX - 0 ft / 0 m 52.30242˚ 6.99009˚ 239 nm 239 nm 271° / 266° -
RATLO FIX - 0 ft / 0 m 51.99139˚ 1.68194˚ 196 nm 435 nm 267° / 262° -
ELRAG FIX - 0 ft / 0 m 51.17444˚ -5.10583˚ 257 nm 693 nm 262° / 256° -
MNOLO FIX - 0 ft / 0 m 18.34556˚ -62.80211˚ 3346 nm 4040 nm 256° / 220° -
O TNCM APT - 0 ft / 0 m 18.03937˚ -63.11961˚ 25 nm 4066 nm 225° / 225° -

Altitude Profile

Advertisement - Login to hide

Weather


0- 5 10 15 20 25 30 35+ Temperature / ° C

Clouds and Precipitation
Forecast for 2017-12-17 18:00 UTC. Updated 33 minutes ago

Ground ~20,000 ft ~40,000 ft Winds

EDDB

Details ICAO EDDB (BER)
Name Berlin Schoenefeld
Region Germany - Civil
Timezone Europe/Berlin (UTC+1.0)
Stats Elevation 157 ft / 48 m (AMSL)
Location 52.378541° 13.520629°
Runways 2
Magnetic Variation 3.808° E

METAR

EDDB 171520Z 32006KT 9999 FEW015 BKN032 02/M01 Q1020 NOSIG

Decode

TAF

TAF TAF EDDB 171100Z 1712/1812 30010KT 9999 BKN014CB BECMG 1712/1714 BKN020 BECMG 1717/1719 24004KT BECMG 1802/1804 13006KT BECMG 1805/1807 3500 BR TEMPO 1805/1810 2000 BR BKN004 BECMG 1808/1810 6000

Decode

Departure Runways

ID Width Length Bearing (true) Bearing (mag) Surface Threshold Offset Overrun Length
07 148 ft / 45 m 9,817 ft / 2,992 m 68.75° 64.94° Asphalt 0 ft / 0 m 984 ft / 300 m
07L 148 ft / 45 m 8,867 ft / 2,703 m 68.77° 64.96° Concrete 0 ft / 0 m 525 ft / 160 m
25 148 ft / 45 m 9,817 ft / 2,992 m 248.78° 244.97° Asphalt 0 ft / 0 m 984 ft / 300 m
25R 148 ft / 45 m 8,867 ft / 2,703 m 248.80° 244.99° Concrete 0 ft / 0 m 984 ft / 300 m

TNCM

Details ICAO TNCM (SXM)
Name St Maarten - Princess Juliana Intl
Region Caribbean Netherlands, Aruba, Curaçao, Sint Maarten
Timezone Unknown (UTC+0.0)
Stats Elevation 12 ft / 4 m (AMSL)
Location 18.040889° -63.108974°
Runways 1
Magnetic Variation 14.325° W

METAR

TNCM 171530Z 06010KT 030V090 9999 VCSH BKN012TCU 26/25 Q1018 A3007 TEMPO SHRA RMK VCSH NE/ TCU N/W

Decode

TAF

TAF TAF AMD TNCM 171404Z 1714/1812 06015G22KT P6SM VCSH SCT018 SCT035 TEMPO 1714/1716 -SHRA BKN014 FM172300 07012KT P6SM SCT022

Decode

Destination Runways

ID Width Length Bearing (true) Bearing (mag) Surface Threshold Offset Overrun Length
10 148 ft / 45 m 7,464 ft / 2,275 m 81.43° 95.76° Asphalt 0 ft / 0 m 151 ft / 46 m
28 148 ft / 45 m 7,464 ft / 2,275 m 261.44° 275.77° Asphalt 397 ft / 121 m 0 ft / 0 m

Popular Alternatives